Time;durP1;ratioP1;P1;durP2;ratioP2;P2;SDS_P1;SDS_P2;PMS_P1;PMS_P2;Temp;Humidity;BMP_temperature;BMP_pressure;BME280_temperature;BME280_humidity;BME280_pressure;Samples;Min_cycle;Max_cycle;Signal;HPM_P1;HPM_P2
2022/07/28 00:02:08;;;;;;;6.85;1.73;;;16.90;1.00;;;;;;4934659;29;20058;-86
2022/07/28 00:04:59;;;;;;;9.52;1.88;;;16.90;1.00;;;;;;4951237;28;20099;-86
2022/07/28 00:07:51;;;;;;;;;;;16.90;1.00;;;;;;4930034;29;20428;-86
2022/07/28 00:10:39;;;;;;;6.15;2.15;;;16.90;1.00;;;;;;4947507;29;19926;-86
2022/07/28 00:13:26;;;;;;;4.90;1.80;;;16.80;1.00;;;;;;4937859;29;20182;-86
2022/07/28 00:16:13;;;;;;;5.38;1.40;;;16.70;1.00;;;;;;4950317;29;20051;-86
2022/07/28 00:19:00;;;;;;;5.95;1.83;;;16.60;1.00;;;;;;4949049;29;20139;-85
2022/07/28 00:21:53;;;;;;;5.45;1.75;;;16.60;1.00;;;;;;4955267;28;20051;-84
2022/07/28 00:24:41;;;;;;;2.65;1.73;;;16.50;1.00;;;;;;4952458;29;20079;-85
2022/07/28 00:27:30;;;;;;;5.72;2.03;;;16.50;1.00;;;;;;4935456;29;20083;-87
2022/07/28 00:30:20;;;;;;;3.45;1.90;;;16.50;1.00;;;;;;4950153;29;20079;-87
2022/07/28 00:33:14;;;;;;;5.03;1.73;;;16.40;1.00;;;;;;4949926;28;20441;-88
2022/07/28 00:36:01;;;;;;;3.38;1.60;;;16.40;1.00;;;;;;4950684;29;20051;-87
2022/07/28 00:38:48;;;;;;;4.53;1.75;;;16.30;1.00;;;;;;4954185;28;20062;-87
2022/07/28 00:41:37;;;;;;;6.22;1.88;;;16.30;1.00;;;;;;4937341;29;20067;-85
2022/07/28 00:44:24;;;;;;;2.75;1.58;;;16.20;1.00;;;;;;4966424;28;20055;-86
2022/07/28 00:47:14;;;;;;;5.07;1.92;;;16.20;1.00;;;;;;4961200;28;20479;-86
2022/07/28 00:50:04;;;;;;;4.38;2.13;;;16.10;1.00;;;;;;4942541;28;20365;-87
2022/07/28 11:21:04;;;;;;;7.28;3.45;;;29.90;99.90;;;;;;4941586;29;20036;-83
2022/07/28 11:23:53;;;;;;;4.28;3.28;;;30.70;99.90;;;;;;4989839;23;20158;-81
2022/07/28 11:29:24;;;;;;;;;;;29.80;99.90;;;;;;5742621;23;20051;-82
2022/07/28 11:32:11;;;;;;;9.75;3.90;;;29.50;99.90;;;;;;4900571;28;19933;-83
2022/07/28 11:35:07;;;;;;;4.90;2.75;;;29.90;99.90;;;;;;4923083;29;20044;-80
2022/07/28 11:38:00;;;;;;;5.63;3.00;;;30.70;99.90;;;;;;4924891;29;20067;-82
2022/07/28 11:40:57;;;;;;;5.40;2.80;;;31.80;99.90;;;;;;4929072;29;20398;-82
2022/07/28 11:43:44;;;;;;;6.65;2.90;;;32.30;99.90;;;;;;4928225;29;20055;-80
2022/07/28 11:46:32;;;;;;;6.32;3.17;;;32.30;99.90;;;;;;4941449;29;20040;-82
2022/07/28 11:49:22;;;;;;;4.97;2.65;;;32.80;99.90;;;;;;4956411;29;20039;-82
2022/07/28 11:52:15;;;;;;;4.90;2.97;;;31.80;99.90;;;;;;4948329;29;20067;-83
2022/07/28 11:55:04;;;;;;;6.20;2.53;;;30.70;99.90;;;;;;4927954;29;20046;-82
2022/07/28 11:57:52;;;;;;;5.82;2.90;;;30.70;99.90;;;;;;4962007;28;20039;-79
2022/07/28 12:00:40;;;;;;;5.57;2.78;;;31.50;99.90;;;;;;4955647;29;20071;-82
2022/07/28 12:03:36;;;;;;;6.68;3.10;;;31.50;99.90;;;;;;4950160;29;20089;-82
2022/07/28 12:06:42;;;;;;;4.40;2.60;;;31.30;99.90;;;;;;4942354;29;20043;-80
2022/07/28 12:09:36;;;;;;;5.85;2.72;;;31.90;99.90;;;;;;4940329;29;20044;-85
2022/07/28 12:12:31;;;;;;;8.68;2.80;;;32.50;99.90;;;;;;4942916;29;20046;-86
2022/07/28 12:15:19;;;;;;;3.38;2.50;;;33.40;99.90;;;;;;4942798;29;20477;-83
2022/07/28 12:18:10;;;;;;;8.05;2.42;;;34.60;99.90;;;;;;4915746;29;20462;-86
2022/07/28 12:20:57;;;;;;;7.35;2.67;;;33.90;99.90;;;;;;4939248;29;20044;-84
2022/07/28 12:23:53;;;;;;;4.45;2.60;;;32.50;99.90;;;;;;4930313;29;20047;-84
2022/07/28 12:26:41;;;;;;;8.13;2.95;;;30.70;99.90;;;;;;4938407;29;20339;-83
2022/07/28 12:29:30;;;;;;;5.43;2.70;;;30.40;99.90;;;;;;4934105;29;20075;-84
2022/07/28 12:32:30;;;;;;;5.18;2.83;;;30.20;99.90;;;;;;4928486;29;20048;-84
2022/07/28 12:35:18;;;;;;;3.83;2.80;;;29.80;99.90;;;;;;4907966;29;20062;-84
2022/07/28 12:38:05;;;;;;;2.97;2.40;;;29.70;99.90;;;;;;4957268;29;20047;-82
2022/07/28 12:40:53;;;;;;;4.72;2.78;;;29.60;99.90;;;;;;4944498;29;20062;-82
2022/07/28 12:43:49;;;;;;;5.05;2.90;;;29.70;99.90;;;;;;4937337;29;20075;-84
2022/07/28 12:46:36;;;;;;;4.28;2.80;;;30.10;99.90;;;;;;4950424;29;20599;-84
2022/07/28 12:49:23;;;;;;;4.88;3.30;;;30.60;99.90;;;;;;4944551;29;20385;-85
2022/07/28 12:52:15;;;;;;;4.22;2.53;;;30.40;99.90;;;;;;4941394;29;20050;-83
2022/07/28 12:55:20;;;;;;;6.40;3.38;;;30.40;99.90;;;;;;4956599;29;20362;-83
2022/07/28 12:58:24;;;;;;;5.82;2.70;;;30.70;99.90;;;;;;4953855;29;20108;-82
2022/07/28 13:01:11;;;;;;;3.35;2.67;;;30.20;99.90;;;;;;4957994;29;20066;-88
2022/07/28 13:03:59;;;;;;;7.03;2.97;;;30.40;99.90;;;;;;4944039;29;20377;-86
2022/07/28 13:06:55;;;;;;;6.40;3.03;;;29.90;99.90;;;;;;4940313;29;20052;-84
2022/07/28 13:09:44;;;;;;;6.50;2.58;;;30.80;99.90;;;;;;4927290;29;20051;-83
2022/07/28 13:12:42;;;;;;;3.63;2.47;;;31.80;99.90;;;;;;4944817;29;20043;-83
2022/07/28 13:15:30;;;;;;;3.97;2.72;;;31.70;99.90;;;;;;4942244;29;20043;-82
2022/07/28 13:18:17;;;;;;;7.82;3.10;;;32.00;99.90;;;;;;4942924;29;20153;-82
2022/07/28 13:21:05;;;;;;;8.25;2.63;;;32.20;99.90;;;;;;4951393;29;20047;-87
2022/07/28 13:23:52;;;;;;;5.53;2.85;;;31.70;99.90;;;;;;4945945;29;20047;-87
2022/07/28 13:26:43;;;;;;;4.15;3.13;;;30.60;99.90;;;;;;4929676;29;20051;-83
2022/07/28 13:29:36;;;;;;;6.97;2.60;;;30.40;99.90;;;;;;4948790;29;20058;-86
2022/07/28 13:32:23;;;;;;;5.43;2.85;;;31.20;99.90;;;;;;4943523;29;20047;-81
2022/07/28 13:35:11;;;;;;;4.93;2.55;;;32.10;99.90;;;;;;4938295;29;20696;-85
2022/07/28 13:38:03;;;;;;;4.70;2.70;;;31.70;99.90;;;;;;4959848;28;20051;-84
2022/07/28 13:40:53;;;;;;;7.55;2.95;;;31.70;99.90;;;;;;4941943;28;20062;-86
2022/07/28 13:43:44;;;;;;;6.15;2.63;;;32.00;99.90;;;;;;4937172;29;20096;-87
2022/07/28 13:46:35;;;;;;;7.47;2.58;;;31.70;99.90;;;;;;4926904;29;20187;-88
2022/07/28 13:49:31;;;;;;;10.05;3.40;;;31.40;99.90;;;;;;4937546;29;20043;-83
2022/07/28 13:52:18;;;;;;;4.25;2.88;;;31.00;99.90;;;;;;4934826;29;20079;-85
2022/07/28 13:55:19;;;;;;;4.35;2.83;;;31.70;99.90;;;;;;4940698;29;20047;-84
2022/07/28 13:58:09;;;;;;;7.55;2.75;;;32.80;99.90;;;;;;4946050;29;20065;-81
2022/07/28 14:00:56;;;;;;;6.35;2.80;;;33.10;99.90;;;;;;4922194;29;20055;-82
2022/07/28 14:03:44;;;;;;;7.85;2.90;;;33.20;99.90;;;;;;4940654;29;20070;-83
2022/07/28 14:06:45;;;;;;;4.95;2.53;;;33.50;99.90;;;;;;4942742;29;20047;-80
2022/07/28 14:09:32;;;;;;;7.18;2.80;;;33.40;99.90;;;;;;4945664;29;20123;-83
2022/07/28 14:12:25;;;;;;;2.55;2.28;;;33.00;99.90;;;;;;4942467;29;20055;-82
2022/07/28 14:15:12;;;;;;;5.15;2.75;;;33.60;99.90;;;;;;4942807;29;20059;-83
2022/07/28 14:18:00;;;;;;;4.32;2.40;;;33.60;99.90;;;;;;4947902;29;20051;-85
2022/07/28 14:20:47;;;;;;;4.75;2.33;;;33.30;99.90;;;;;;4940676;29;20061;-85
2022/07/28 14:23:34;;;;;;;5.47;2.45;;;33.20;99.90;;;;;;4938691;29;20187;-85
2022/07/28 14:26:22;;;;;;;3.42;2.50;;;33.00;99.90;;;;;;4933445;29;20108;-83
2022/07/28 14:29:26;;;;;;;7.00;2.55;;;32.80;99.90;;;;;;4932328;29;20039;-85
2022/07/28 14:32:14;;;;;;;5.40;3.00;;;33.70;99.90;;;;;;4941172;29;20052;-84
2022/07/28 14:35:01;;;;;;;3.85;2.22;;;33.40;99.90;;;;;;4932120;29;20067;-84
2022/07/28 14:37:51;;;;;;;4.72;2.53;;;33.40;99.90;;;;;;4942931;28;20105;-81
2022/07/28 14:40:58;;;;;;;7.22;2.67;;;34.50;99.90;;;;;;4945382;28;20405;-84
2022/07/28 14:43:45;;;;;;;5.70;2.50;;;34.10;99.90;;;;;;4938179;29;20047;-85
2022/07/28 14:46:38;;;;;;;6.13;2.70;;;33.80;99.90;;;;;;4964157;28;20109;-84
2022/07/28 14:49:25;;;;;;;5.65;2.50;;;33.50;99.90;;;;;;4942602;29;20475;-85
2022/07/28 14:52:15;;;;;;;6.15;2.67;;;33.90;99.90;;;;;;4938065;29;20058;-83
2022/07/28 14:55:03;;;;;;;6.63;2.47;;;34.20;99.90;;;;;;4956679;28;20377;-82
2022/07/28 14:57:50;;;;;;;4.00;2.72;;;34.40;99.90;;;;;;4937381;29;20062;-83
2022/07/28 15:00:41;;;;;;;3.65;2.30;;;34.70;99.90;;;;;;4960204;28;20053;-83
2022/07/28 15:03:28;;;;;;;4.20;2.67;;;34.90;99.90;;;;;;4933940;28;20358;-82
2022/07/28 15:06:24;;;;;;;5.30;2.60;;;35.10;99.90;;;;;;4969327;28;20082;-83
2022/07/28 15:09:16;;;;;;;7.55;2.50;;;34.30;99.90;;;;;;4958199;28;20054;-85
2022/07/28 15:12:03;;;;;;;4.32;2.55;;;33.60;99.90;;;;;;4952918;28;20043;-83
2022/07/28 15:14:51;;;;;;;3.03;2.10;;;33.10;99.90;;;;;;4961039;28;20143;-83
2022/07/28 15:17:40;;;;;;;4.88;2.53;;;33.50;99.90;;;;;;4949739;28;20055;-83
2022/07/28 15:20:27;;;;;;;4.30;2.80;;;32.90;99.90;;;;;;4948104;28;20058;-83
2022/07/28 15:23:15;;;;;;;3.72;2.60;;;32.40;99.90;;;;;;4962788;28;20062;-80
2022/07/28 15:26:04;;;;;;;7.22;2.60;;;32.50;99.90;;;;;;4951232;28;20043;-82
2022/07/28 15:28:52;;;;;;;3.90;2.38;;;32.80;99.90;;;;;;4943796;28;20055;-83
2022/07/28 15:31:41;;;;;;;5.78;2.78;;;33.10;99.90;;;;;;4934435;29;20047;-83
2022/07/28 15:34:34;;;;;;;5.43;2.55;;;32.90;99.90;;;;;;4939038;29;20074;-81
2022/07/28 15:37:23;;;;;;;2.63;2.38;;;32.10;99.90;;;;;;4942115;28;20058;-81
2022/07/28 15:40:13;;;;;;;3.13;2.80;;;31.30;99.90;;;;;;4941631;29;20058;-84
2022/07/28 15:43:03;;;;;;;5.65;2.60;;;30.50;99.90;;;;;;4953085;29;20059;-80
2022/07/28 15:45:53;;;;;;;6.80;3.40;;;30.80;99.90;;;;;;4948208;28;20051;-81
2022/07/28 15:48:43;;;;;;;5.88;2.60;;;31.00;99.90;;;;;;4938752;29;20465;-83
2022/07/28 15:51:31;;;;;;;4.80;2.60;;;30.90;99.90;;;;;;4943289;28;20051;-81
2022/07/28 15:54:20;;;;;;;6.28;3.00;;;31.00;99.90;;;;;;4934265;28;20051;-80
2022/07/28 15:57:07;;;;;;;6.68;2.75;;;31.00;99.90;;;;;;4937826;29;20043;-82
2022/07/28 15:59:55;;;;;;;6.82;2.67;;;30.70;99.90;;;;;;4939994;28;20058;-80
2022/07/28 16:02:42;;;;;;;4.60;3.05;;;30.90;99.90;;;;;;4937966;29;20055;-81
2022/07/28 16:05:29;;;;;;;4.07;2.70;;;30.90;99.90;;;;;;4939975;28;20125;-80
2022/07/28 16:08:19;;;;;;;8.63;2.95;;;31.30;99.90;;;;;;4942067;29;20051;-80
2022/07/28 16:11:12;;;;;;;4.45;2.80;;;31.20;99.90;;;;;;4938063;29;20074;-83
2022/07/28 16:14:04;;;;;;;7.43;3.38;;;30.80;99.90;;;;;;4940127;29;20058;-83
2022/07/28 16:16:52;;;;;;;5.32;2.90;;;30.10;99.90;;;;;;4945829;28;20059;-83
2022/07/28 16:19:39;;;;;;;9.02;3.13;;;29.70;99.90;;;;;;4940930;29;20051;-83
2022/07/28 16:22:37;;;;;;;7.13;3.35;;;29.50;99.90;;;;;;4942617;29;20432;-83
2022/07/28 16:25:24;;;;;;;8.95;3.35;;;29.70;99.90;;;;;;4934936;28;20053;-81
2022/07/28 16:28:12;;;;;;;5.40;3.53;;;29.40;99.90;;;;;;4940971;28;20485;-81
2022/07/28 16:31:01;;;;;;;4.60;3.10;;;29.10;99.90;;;;;;4949639;28;20061;-80
2022/07/28 16:33:48;;;;;;;5.72;3.00;;;29.00;99.90;;;;;;4939104;29;20054;-80
2022/07/28 16:36:38;;;;;;;4.00;3.22;;;28.60;99.90;;;;;;4942980;28;20043;-79
2022/07/28 16:39:28;;;;;;;5.53;3.10;;;28.40;99.90;;;;;;4958652;28;20108;-82
2022/07/28 16:42:15;;;;;;;5.85;3.20;;;27.90;99.90;;;;;;4942804;28;20354;-81
2022/07/28 16:45:03;;;;;;;6.50;3.60;;;27.60;99.90;;;;;;4944120;28;20054;-78
2022/07/28 16:47:51;;;;;;;7.47;3.53;;;27.40;99.90;;;;;;4943257;29;20051;-81
2022/07/28 16:50:44;;;;;;;6.10;3.40;;;27.20;99.90;;;;;;4943028;28;20055;-78
2022/07/28 16:53:33;;;;;;;12.52;5.78;;;26.90;99.90;;;;;;4942563;28;20096;-78
2022/07/28 16:56:21;;;;;;;6.25;2.95;;;26.80;99.90;;;;;;4944711;28;20102;-80
2022/07/28 16:59:08;;;;;;;5.43;3.58;;;26.80;99.90;;;;;;4941164;29;20050;-79
2022/07/28 17:01:56;;;;;;;7.97;3.35;;;26.80;99.90;;;;;;4928173;29;20384;-80
2022/07/28 17:04:44;;;;;;;5.68;3.60;;;26.80;99.90;;;;;;4948686;28;20063;-79
2022/07/28 17:07:31;;;;;;;9.27;3.05;;;26.70;99.90;;;;;;4938385;28;20485;-80
2022/07/28 17:10:18;;;;;;;6.13;3.33;;;26.70;99.90;;;;;;4945912;29;20350;-79
2022/07/28 17:13:10;;;;;;;4.68;3.05;;;26.50;99.90;;;;;;4944420;28;20043;-78
2022/07/28 17:16:25;;;;;;;7.90;3.30;;;26.40;99.90;;;;;;4944969;29;20058;-84
2022/07/28 17:19:44;;;;;;;5.18;2.92;;;26.20;99.90;;;;;;4958004;28;20039;-85
2022/07/28 17:22:33;;;;;;;5.57;2.85;;;26.00;99.90;;;;;;4944622;29;20513;-86
2022/07/28 17:25:20;;;;;;;5.65;3.10;;;25.80;99.90;;;;;;4946976;29;20044;-85
2022/07/28 17:28:30;;;;;;;4.80;2.90;;;25.70;99.90;;;;;;4949815;29;20071;-84
2022/07/28 17:31:19;;;;;;;4.22;3.17;;;25.60;99.90;;;;;;4942131;29;20670;-88
2022/07/28 17:34:07;;;;;;;3.85;3.42;;;25.40;99.90;;;;;;4943222;29;20138;-86
2022/07/28 17:36:54;;;;;;;8.77;2.97;;;25.40;99.90;;;;;;4939160;28;20055;-86
2022/07/28 17:39:41;;;;;;;5.35;2.78;;;25.30;99.90;;;;;;4946168;29;20062;-85
2022/07/28 17:42:29;;;;;;;4.30;2.95;;;25.20;99.90;;;;;;4942346;29;20039;-87
2022/07/28 17:45:17;;;;;;;5.15;3.10;;;25.10;99.90;;;;;;4944124;28;20388;-83
2022/07/28 17:48:04;;;;;;;6.68;3.45;;;25.10;99.90;;;;;;4941769;28;20047;-84
2022/07/28 17:50:51;;;;;;;6.57;3.47;;;25.10;99.90;;;;;;4953651;28;20066;-83
2022/07/28 17:53:39;;;;;;;4.28;2.90;;;25.00;99.90;;;;;;4952994;29;20086;-84
2022/07/28 17:56:31;;;;;;;7.63;3.15;;;25.00;99.90;;;;;;4956390;29;20036;-84
2022/07/28 17:59:22;;;;;;;13.13;3.40;;;25.00;99.90;;;;;;4943789;28;20043;-85
2022/07/28 18:02:10;;;;;;;6.22;3.40;;;24.90;99.90;;;;;;4944937;28;20426;-85
2022/07/28 18:04:59;;;;;;;5.53;3.25;;;24.80;99.90;;;;;;4937389;28;20480;-85
2022/07/28 18:07:46;;;;;;;10.32;3.30;;;24.80;99.90;;;;;;4925846;29;20044;-85
2022/07/28 18:10:38;;;;;;;9.48;3.22;;;24.70;99.90;;;;;;4941321;29;20125;-86
2022/07/28 18:13:25;;;;;;;5.43;3.53;;;24.70;99.90;;;;;;4940688;28;20047;-84
2022/07/28 18:16:13;;;;;;;3.90;2.88;;;24.70;99.90;;;;;;4941651;29;20054;-84
2022/07/28 18:19:03;;;;;;;7.78;3.30;;;24.70;99.90;;;;;;4944402;28;20059;-84
2022/07/28 18:21:51;;;;;;;4.25;2.95;;;24.70;99.90;;;;;;4943731;28;20062;-84
2022/07/28 18:24:40;;;;;;;4.68;2.90;;;24.70;99.90;;;;;;4942523;28;20058;-85
2022/07/28 18:27:28;;;;;;;7.20;3.15;;;24.70;99.90;;;;;;4946291;29;20125;-83
2022/07/28 18:30:18;;;;;;;9.20;3.20;;;24.70;99.90;;;;;;4942159;28;20054;-83
2022/07/28 18:33:07;;;;;;;6.22;3.42;;;24.60;99.90;;;;;;4936176;29;20070;-82
2022/07/28 18:35:55;;;;;;;6.32;3.10;;;24.60;99.90;;;;;;4938011;29;20047;-84
2022/07/28 18:39:13;;;;;;;4.13;2.92;;;24.50;99.90;;;;;;4956629;28;20047;-84
2022/07/28 18:42:03;;;;;;;11.23;3.53;;;24.40;99.90;;;;;;4940691;28;20259;-82
2022/07/28 18:44:50;;;;;;;3.80;2.75;;;24.30;99.90;;;;;;4939422;29;20087;-84
2022/07/28 18:47:41;;;;;;;6.72;3.55;;;24.20;99.90;;;;;;4932207;29;20373;-84
2022/07/28 18:50:34;;;;;;;9.38;3.30;;;24.10;99.90;;;;;;4951209;28;20047;-83
2022/07/28 18:53:27;;;;;;;4.25;2.92;;;24.00;99.90;;;;;;4948228;29;20044;-84
2022/07/28 18:56:15;;;;;;;5.68;3.15;;;23.90;99.90;;;;;;4965897;28;20071;-83
2022/07/28 18:59:05;;;;;;;6.72;2.72;;;23.90;99.90;;;;;;4958218;29;20039;-79
2022/07/28 19:01:52;;;;;;;8.68;3.35;;;23.90;99.90;;;;;;4956261;29;20036;-82
2022/07/28 19:04:46;;;;;;;6.93;3.00;;;23.80;99.90;;;;;;4967563;28;20158;-84
2022/07/28 19:07:33;;;;;;;4.97;3.35;;;23.80;99.90;;;;;;4944180;29;20061;-82
2022/07/28 19:10:20;;;;;;;6.07;2.65;;;23.80;99.90;;;;;;4945824;28;20366;-83
2022/07/28 19:13:08;;;;;;;4.68;3.00;;;23.80;99.90;;;;;;4944256;28;20073;-83
2022/07/28 19:15:59;;;;;;;8.13;3.10;;;23.80;99.90;;;;;;4943753;29;20141;-83
2022/07/28 19:18:46;;;;;;;8.05;2.80;;;23.80;99.90;;;;;;4939106;28;20383;-82
2022/07/28 19:21:36;;;;;;;4.43;2.88;;;23.80;99.90;;;;;;4939124;29;20043;-83
2022/07/28 19:24:30;;;;;;;6.13;2.88;;;23.80;99.90;;;;;;4939954;28;20080;-82
2022/07/28 19:27:19;;;;;;;8.13;2.83;;;23.80;99.90;;;;;;4942232;28;20039;-84
2022/07/28 19:30:08;;;;;;;4.72;2.95;;;23.80;99.90;;;;;;4943304;28;20156;-85
2022/07/28 19:32:55;;;;;;;6.78;3.28;;;23.70;99.90;;;;;;4941292;28;20429;-84
2022/07/28 19:35:44;;;;;;;6.00;2.80;;;23.60;99.90;;;;;;4941255;29;20126;-85
2022/07/28 19:38:34;;;;;;;7.50;3.15;;;23.50;99.90;;;;;;4940522;29;20051;-85
2022/07/28 19:41:25;;;;;;;9.50;4.03;;;23.30;99.90;;;;;;4943275;29;20074;-83
2022/07/28 19:44:15;;;;;;;7.72;3.88;;;23.00;99.90;;;;;;4939484;28;20158;-84
2022/07/28 19:47:04;;;;;;;4.18;3.38;;;22.60;99.90;;;;;;4939207;29;20070;-84
2022/07/28 19:49:52;;;;;;;6.00;3.33;;;22.30;99.90;;;;;;4945597;28;20169;-85
2022/07/28 19:52:39;;;;;;;7.72;3.90;;;22.10;1.00;;;;;;4947046;29;20062;-86
2022/07/28 19:55:26;;;;;;;9.02;3.15;;;22.40;99.90;;;;;;4952194;28;20051;-86
2022/07/28 19:58:17;;;;;;;8.52;3.30;;;22.70;99.90;;;;;;4962561;29;20071;-85
2022/07/28 20:01:05;;;;;;;7.15;3.45;;;22.70;99.90;;;;;;4962363;29;20049;-86
2022/07/28 20:03:53;;;;;;;6.65;3.13;;;22.60;99.90;;;;;;4952472;29;20066;-84
2022/07/28 20:06:52;;;;;;;10.10;3.20;;;22.30;99.90;;;;;;4946141;29;20047;-81
2022/07/28 20:09:41;;;;;;;7.70;4.10;;;21.60;1.00;;;;;;4957850;28;20138;-84
2022/07/28 20:12:29;;;;;;;11.43;4.25;;;20.80;1.00;;;;;;4935011;29;20062;-85
2022/07/28 20:15:24;;;;;;;8.23;4.97;;;20.10;1.00;;;;;;4951511;29;20130;-83
2022/07/28 20:18:25;;;;;;;11.90;6.03;;;19.60;1.00;;;;;;4931774;29;20091;-84
2022/07/28 20:21:13;;;;;;;10.35;6.03;;;19.00;1.00;;;;;;4945841;29;20039;-84
2022/07/28 20:24:00;;;;;;;11.20;7.85;;;18.50;90.40;;;;;;4945754;28;20054;-84
2022/07/28 20:26:47;;;;;;;8.85;7.57;;;18.20;99.90;;;;;;4935224;28;20126;-84
2022/07/28 20:29:36;;;;;;;12.50;8.27;;;17.90;99.90;;;;;;4943673;29;20051;-85
2022/07/28 20:32:23;;;;;;;10.70;7.93;;;17.80;99.90;;;;;;4942901;29;20051;-83
2022/07/28 20:35:11;;;;;;;14.38;9.10;;;17.70;1.00;;;;;;4942548;28;20043;-84
2022/07/28 20:38:07;;;;;;;15.00;9.63;;;17.70;1.00;;;;;;4940956;29;20070;-82
2022/07/28 20:40:58;;;;;;;18.08;11.07;;;17.60;99.90;;;;;;4939660;29;20461;-83
2022/07/28 20:43:45;;;;;;;15.05;11.48;;;17.60;1.00;;;;;;4943891;28;20118;-84
2022/07/28 20:46:57;;;;;;;12.32;9.27;;;17.50;44.70;;;;;;4946366;29;20054;-84
2022/07/28 20:49:44;;;;;;;11.98;10.70;;;17.50;94.70;;;;;;4939705;29;20051;-82
2022/07/28 20:52:34;;;;;;;13.48;11.40;;;17.60;99.90;;;;;;4956783;28;20036;-84
2022/07/28 20:55:22;;;;;;;13.10;11.60;;;17.60;99.90;;;;;;4941141;29;20039;-82
2022/07/28 20:58:09;;;;;;;13.45;11.23;;;17.60;99.90;;;;;;4938804;29;20043;-81
2022/07/28 21:00:58;;;;;;;16.60;12.18;;;17.50;1.00;;;;;;4958741;28;20043;-81
2022/07/28 21:03:45;;;;;;;21.15;14.90;;;17.60;99.90;;;;;;4941306;29;20047;-82
2022/07/28 21:06:33;;;;;;;19.48;14.85;;;17.60;1.00;;;;;;4956035;28;20126;-81
2022/07/28 21:09:26;;;;;;;17.75;14.23;;;17.50;99.90;;;;;;4942474;29;20183;-82
2022/07/28 21:12:14;;;;;;;18.10;13.98;;;17.50;1.00;;;;;;4941812;29;20043;-82
2022/07/28 21:15:02;;;;;;;15.60;12.63;;;17.50;99.90;;;;;;4946758;28;20066;-82
2022/07/28 21:17:54;;;;;;;13.65;11.02;;;17.40;55.20;;;;;;4937629;29;20040;-83
2022/07/28 21:20:41;;;;;;;12.82;11.32;;;17.40;99.90;;;;;;4939596;29;20056;-82
2022/07/28 21:23:29;;;;;;;16.13;13.13;;;17.40;99.90;;;;;;4940569;29;20035;-83
2022/07/28 21:26:18;;;;;;;12.48;11.18;;;17.40;99.90;;;;;;4955833;28;20053;-81
2022/07/28 21:29:11;;;;;;;16.45;11.35;;;17.50;99.90;;;;;;4938241;29;20058;-83
2022/07/28 21:31:59;;;;;;;11.82;9.52;;;17.60;6.30;;;;;;4953230;28;20035;-82
2022/07/28 21:34:59;;;;;;;10.50;8.70;;;17.60;1.00;;;;;;4938593;28;20051;-82
2022/07/28 21:37:46;;;;;;;16.88;10.05;;;17.60;99.90;;;;;;4941779;29;20043;-81
2022/07/28 21:40:33;;;;;;;15.93;11.05;;;17.70;99.90;;;;;;4946561;28;20500;-81
2022/07/28 21:43:20;;;;;;;14.32;11.32;;;17.70;99.90;;;;;;4938609;29;20040;-80
2022/07/28 21:46:08;;;;;;;12.43;10.02;;;17.70;1.00;;;;;;4936967;28;20054;-81
2022/07/28 21:48:56;;;;;;;12.05;10.07;;;17.70;1.00;;;;;;4943608;28;20374;-82
2022/07/28 21:51:47;;;;;;;11.70;10.48;;;17.60;99.90;;;;;;4942591;29;20057;-82
2022/07/28 21:54:35;;;;;;;11.70;9.85;;;17.60;1.00;;;;;;4955946;28;20064;-83
2022/07/28 21:57:22;;;;;;;15.93;11.75;;;17.60;99.90;;;;;;4946536;28;20059;-82
2022/07/28 22:00:16;;;;;;;13.32;11.20;;;17.60;99.90;;;;;;4959538;28;20050;-83
2022/07/28 22:03:03;;;;;;;14.77;11.40;;;17.50;99.90;;;;;;4941584;28;20054;-83
2022/07/28 22:05:52;;;;;;;16.60;11.63;;;17.50;1.00;;;;;;4951811;28;20047;-83
2022/07/28 22:08:39;;;;;;;13.65;11.82;;;17.50;1.00;;;;;;4942429;29;20051;-83
2022/07/28 22:11:29;;;;;;;13.77;11.50;;;17.40;99.90;;;;;;4950179;28;20115;-82
2022/07/28 22:14:16;;;;;;;14.52;11.77;;;17.40;99.90;;;;;;4941050;29;20047;-84
2022/07/28 22:17:04;;;;;;;17.92;11.35;;;17.30;99.90;;;;;;4936127;28;20047;-83
2022/07/28 22:19:51;;;;;;;13.68;11.82;;;17.20;99.90;;;;;;4950169;28;20075;-83
2022/07/28 22:22:39;;;;;;;15.70;13.95;;;17.20;35.90;;;;;;4955341;29;20055;-84
2022/07/28 22:25:26;;;;;;;16.73;13.75;;;17.20;99.90;;;;;;4938410;29;20445;-84
2022/07/28 22:28:16;;;;;;;18.27;13.38;;;17.20;1.00;;;;;;4941677;29;20081;-82
2022/07/28 22:31:16;;;;;;;18.60;13.02;;;17.20;30.90;;;;;;4943282;28;20080;-83
2022/07/28 22:34:03;;;;;;;14.07;11.80;;;17.30;1.00;;;;;;4943999;29;20052;-83
2022/07/28 22:36:50;;;;;;;14.32;11.15;;;17.40;99.90;;;;;;4935095;28;20047;-82
2022/07/28 22:39:40;;;;;;;12.18;10.85;;;17.40;14.50;;;;;;4958215;28;20455;-82
2022/07/28 22:42:28;;;;;;;13.63;12.02;;;17.40;1.00;;;;;;4967003;28;20062;-85
2022/07/28 22:45:15;;;;;;;20.92;14.13;;;17.40;1.00;;;;;;4952543;28;20065;-82
2022/07/28 22:48:22;;;;;;;17.55;15.05;;;17.50;99.90;;;;;;4948621;28;20137;-83
2022/07/28 22:51:13;;;;;;;18.55;15.07;;;17.50;1.00;;;;;;4941419;29;20051;-82
2022/07/28 22:54:01;;;;;;;16.52;14.75;;;17.40;1.00;;;;;;4935830;29;20617;-83
2022/07/28 22:56:48;;;;;;;20.70;17.38;;;17.40;1.00;;;;;;4942253;28;20044;-82
2022/07/28 22:59:35;;;;;;;21.77;19.17;;;17.40;14.30;;;;;;4950841;28;20357;-83
2022/07/28 23:02:26;;;;;;;20.55;18.08;;;17.30;33.10;;;;;;4944459;28;20039;-83
2022/07/28 23:05:15;;;;;;;23.80;18.48;;;17.30;67.50;;;;;;4946338;29;20473;-82
2022/07/28 23:08:03;;;;;;;20.08;17.98;;;17.20;90.40;;;;;;4925330;28;20049;-83
2022/07/28 23:10:53;;;;;;;22.55;18.52;;;17.20;98.10;;;;;;4937853;28;20074;-83
2022/07/28 23:13:43;;;;;;;21.00;17.88;;;17.20;99.90;;;;;;4947425;28;20417;-84
2022/07/28 23:16:33;;;;;;;22.13;19.35;;;17.10;99.90;;;;;;4938027;29;20055;-83
2022/07/28 23:19:27;;;;;;;27.02;22.77;;;17.20;99.90;;;;;;4947577;28;20457;-82
2022/07/28 23:22:16;;;;;;;27.25;23.83;;;17.30;99.90;;;;;;4935282;29;20070;-82
2022/07/28 23:25:05;;;;;;;29.75;24.40;;;17.30;99.90;;;;;;4942967;29;20062;-82
2022/07/28 23:27:52;;;;;;;28.40;24.50;;;17.20;99.90;;;;;;4940999;29;20055;-83
2022/07/28 23:30:39;;;;;;;29.25;23.25;;;17.20;99.90;;;;;;4940539;29;20051;-83
2022/07/28 23:33:27;;;;;;;30.73;24.02;;;17.20;99.90;;;;;;4945900;28;20038;-82
2022/07/28 23:36:36;;;;;;;30.95;24.63;;;17.20;99.90;;;;;;4947724;28;20331;-85
2022/07/28 23:39:28;;;;;;;26.45;23.33;;;17.20;99.90;;;;;;4949764;28;20048;-82
2022/07/28 23:42:15;;;;;;;23.83;20.20;;;17.30;99.90;;;;;;4939048;29;20121;-83
2022/07/28 23:45:03;;;;;;;21.15;18.95;;;17.30;99.90;;;;;;4943100;29;20430;-83
2022/07/28 23:47:51;;;;;;;17.73;15.35;;;17.20;99.90;;;;;;4948156;29;20385;-83
2022/07/28 23:50:44;;;;;;;18.00;15.75;;;17.20;99.90;;;;;;4943223;28;20106;-81
2022/07/28 23:53:34;;;;;;;18.55;14.98;;;17.20;99.90;;;;;;4933488;28;20063;-82
2022/07/28 23:56:21;;;;;;;17.15;15.43;;;17.20;99.90;;;;;;4932992;29;20094;-82
2022/07/28 23:59:11;;;;;;;16.73;15.00;;;17.20;99.90;;;;;;4940849;29;20066;-83
